createdAt,value
2022-09-27T00:00:00.260Z,99440
2022-09-27T00:01:00.768Z,99440
2022-09-27T00:02:00.238Z,99450
2022-09-27T00:03:00.314Z,99450
2022-09-27T00:04:00.268Z,99440
2022-09-27T00:05:00.152Z,99440
2022-09-27T00:06:01.479Z,99440
2022-09-27T00:07:00.158Z,99440
2022-09-27T00:08:00.250Z,99440
2022-09-27T00:09:00.152Z,99440
2022-09-27T00:10:00.160Z,99440
2022-09-27T00:11:02.153Z,99440
2022-09-27T00:12:00.285Z,99450
2022-09-27T00:13:00.158Z,99450
2022-09-27T00:14:00.799Z,99450
2022-09-27T00:15:00.176Z,99450
2022-09-27T00:16:01.324Z,99460
2022-09-27T00:17:00.154Z,99460
2022-09-27T00:18:00.163Z,99460
2022-09-27T00:19:01.422Z,99460
2022-09-27T00:20:00.303Z,99460
2022-09-27T00:21:06.813Z,99450
2022-09-27T00:22:00.181Z,99450
2022-09-27T00:23:00.152Z,99450
2022-09-27T00:24:00.445Z,99460
2022-09-27T00:25:00.163Z,99460
2022-09-27T00:26:00.164Z,99460
2022-09-27T00:27:00.307Z,99460
2022-09-27T00:28:00.286Z,99460
2022-09-27T00:29:00.153Z,99460
2022-09-27T00:30:00.173Z,99460
2022-09-27T00:31:00.282Z,99460
2022-09-27T00:32:00.298Z,99460
2022-09-27T00:33:00.163Z,99460
2022-09-27T00:34:00.901Z,99460
2022-09-27T00:35:00.151Z,99460
2022-09-27T00:36:03.959Z,99470
2022-09-27T00:37:00.187Z,99470
2022-09-27T00:38:00.154Z,99470
2022-09-27T00:39:00.430Z,99470
2022-09-27T00:40:00.273Z,99470
2022-09-27T00:41:00.264Z,99470
2022-09-27T00:42:00.478Z,99480
2022-09-27T00:43:00.284Z,99480
2022-09-27T00:44:01.946Z,99480
2022-09-27T00:45:00.148Z,99480
2022-09-27T00:46:02.155Z,99480
2022-09-27T00:47:08.660Z,99470
2022-09-27T00:48:02.947Z,99470
2022-09-27T00:49:10.122Z,99470
2022-09-27T00:50:07.477Z,99470
2022-09-27T00:51:02.551Z,99470
2022-09-27T00:52:02.681Z,99470
2022-09-27T00:53:08.853Z,99470
2022-09-27T00:54:00.444Z,99470
2022-09-27T00:55:03.719Z,99470
2022-09-27T00:56:01.842Z,99480
2022-09-27T00:57:01.547Z,99480
2022-09-27T00:58:01.667Z,99480
2022-09-27T00:59:02.782Z,99480
2022-09-27T01:00:03.237Z,99480
2022-09-27T01:01:01.993Z,99480
2022-09-27T01:02:01.733Z,99480
2022-09-27T01:03:02.517Z,99480
2022-09-27T01:04:04.543Z,99480
2022-09-27T01:05:00.244Z,99480
2022-09-27T01:06:00.260Z,99480
2022-09-27T01:07:00.204Z,99480
2022-09-27T01:08:00.254Z,99490
2022-09-27T01:09:00.235Z,99490
2022-09-27T01:10:00.504Z,99480
2022-09-27T01:11:09.639Z,99470
2022-09-27T01:12:09.993Z,99470
2022-09-27T01:13:00.136Z,99470
2022-09-27T01:14:07.174Z,99480
2022-09-27T01:15:07.216Z,99470
2022-09-27T01:16:07.642Z,99470
2022-09-27T01:17:10.147Z,99480
2022-09-27T01:18:10.096Z,99480
2022-09-27T01:19:10.281Z,99480
2022-09-27T01:20:10.134Z,99480
2022-09-27T01:21:01.186Z,99480
2022-09-27T01:22:05.124Z,99480
2022-09-27T01:23:10.102Z,99480
2022-09-27T01:24:00.156Z,99480
2022-09-27T01:25:10.108Z,99480
2022-09-27T01:26:03.430Z,99480
2022-09-27T01:27:10.102Z,99480
2022-09-27T01:28:08.604Z,99480
2022-09-27T01:29:06.760Z,99480
2022-09-27T01:30:10.140Z,99480
2022-09-27T01:31:08.015Z,99480
2022-09-27T01:32:05.212Z,99480
2022-09-27T01:33:07.653Z,99480
2022-09-27T01:34:06.651Z,99480
2022-09-27T01:35:10.136Z,99480
2022-09-27T01:36:00.135Z,99480
2022-09-27T01:37:07.009Z,99490
2022-09-27T01:38:01.157Z,99490
2022-09-27T01:39:07.212Z,99490
2022-09-27T01:40:06.857Z,99490
2022-09-27T01:41:05.996Z,99490
2022-09-27T01:42:12.785Z,99490
2022-09-27T01:43:00.160Z,99490
2022-09-27T01:44:03.386Z,99480
2022-09-27T01:45:05.495Z,99480
2022-09-27T01:46:04.993Z,99480
2022-09-27T01:47:02.820Z,99480
2022-09-27T01:48:01.948Z,99490
2022-09-27T01:49:03.308Z,99490
2022-09-27T01:50:02.366Z,99490
2022-09-27T01:51:07.130Z,99490
2022-09-27T01:52:02.967Z,99490
2022-09-27T01:53:10.094Z,99490
2022-09-27T01:54:01.636Z,99490
2022-09-27T01:55:02.114Z,99490
2022-09-27T01:56:03.193Z,99490
2022-09-27T01:57:00.962Z,99490
2022-09-27T01:58:10.090Z,99490
2022-09-27T01:59:10.160Z,99490
2022-09-27T02:00:01.462Z,99490
2022-09-27T02:01:01.299Z,99490
2022-09-27T02:02:03.376Z,99490
2022-09-27T02:03:05.701Z,99490
2022-09-27T02:04:00.884Z,99490
2022-09-27T02:05:01.749Z,99490
2022-09-27T02:06:01.563Z,99490
2022-09-27T02:07:03.915Z,99490
2022-09-27T02:08:04.460Z,99490
2022-09-27T02:09:00.136Z,99490
2022-09-27T02:10:03.407Z,99490
2022-09-27T02:11:01.664Z,99490
2022-09-27T02:12:03.565Z,99490
2022-09-27T02:13:10.086Z,99490
2022-09-27T02:14:10.087Z,99490
2022-09-27T02:15:03.029Z,99490
2022-09-27T02:16:07.712Z,99500
2022-09-27T02:17:10.085Z,99490
2022-09-27T02:18:01.809Z,99490
2022-09-27T02:19:10.183Z,99500
2022-09-27T02:20:06.828Z,99500
2022-09-27T02:21:03.107Z,99500
2022-09-27T02:22:09.111Z,99490
2022-09-27T02:23:00.145Z,99490
2022-09-27T02:24:01.616Z,99500
2022-09-27T02:25:06.906Z,99500
2022-09-27T02:26:02.350Z,99500
2022-09-27T02:27:05.572Z,99500
2022-09-27T02:28:08.745Z,99500
2022-09-27T02:29:06.328Z,99490
2022-09-27T02:30:04.787Z,99490
2022-09-27T02:31:00.314Z,99490
2022-09-27T02:32:00.414Z,99490
2022-09-27T02:33:00.831Z,99490
2022-09-27T02:34:03.612Z,99490
2022-09-27T02:35:03.081Z,99490
2022-09-27T02:36:00.265Z,99490
2022-09-27T02:37:00.177Z,99490
2022-09-27T02:38:00.261Z,99500
2022-09-27T02:39:00.146Z,99500
2022-09-27T02:40:00.325Z,99500
2022-09-27T02:41:00.278Z,99500
2022-09-27T02:42:00.420Z,99500
2022-09-27T02:43:02.308Z,99500
2022-09-27T02:44:02.890Z,99510
2022-09-27T02:45:01.592Z,99510
2022-09-27T02:46:10.196Z,99500
2022-09-27T02:47:03.404Z,99500
2022-09-27T02:48:10.091Z,99500
2022-09-27T02:49:00.143Z,99500
2022-09-27T02:50:01.149Z,99510
2022-09-27T02:51:10.084Z,99500
2022-09-27T02:52:01.148Z,99500
2022-09-27T02:53:10.083Z,99500
2022-09-27T02:54:10.096Z,99500
2022-09-27T02:55:10.103Z,99500
2022-09-27T02:56:04.562Z,99500
2022-09-27T02:57:00.133Z,99500
2022-09-27T02:58:07.472Z,99500
2022-09-27T02:59:10.105Z,99510
2022-09-27T03:00:05.329Z,99510
2022-09-27T03:01:08.104Z,99510
2022-09-27T03:02:13.542Z,99510
2022-09-27T03:03:10.150Z,99510
2022-09-27T03:04:08.321Z,99510
2022-09-27T03:05:09.573Z,99510
2022-09-27T03:06:05.350Z,99510
2022-09-27T03:07:00.508Z,99510
2022-09-27T03:08:00.237Z,99510
2022-09-27T03:09:00.155Z,99510
2022-09-27T03:10:00.220Z,99510
2022-09-27T03:11:00.156Z,99510
2022-09-27T03:12:00.243Z,99510
2022-09-27T03:13:00.748Z,99510
2022-09-27T03:14:09.186Z,99500
2022-09-27T03:15:00.267Z,99500
2022-09-27T03:16:01.730Z,99500
2022-09-27T03:17:00.324Z,99500
2022-09-27T03:18:00.539Z,99510
2022-09-27T03:19:00.157Z,99510
2022-09-27T03:20:00.223Z,99510
2022-09-27T03:21:00.161Z,99510
2022-09-27T03:22:00.159Z,99510
2022-09-27T03:23:00.168Z,99510
2022-09-27T03:24:00.595Z,99510
2022-09-27T03:25:00.458Z,99510
2022-09-27T03:26:00.157Z,99500
2022-09-27T03:27:00.148Z,99500
2022-09-27T03:28:00.282Z,99500
2022-09-27T03:29:00.156Z,99500
2022-09-27T03:30:00.166Z,99500
2022-09-27T03:31:00.208Z,99500
2022-09-27T03:32:00.498Z,99500
2022-09-27T03:33:00.175Z,99500
2022-09-27T03:34:00.153Z,99500
2022-09-27T03:35:00.163Z,99500
2022-09-27T03:36:00.313Z,99500
2022-09-27T03:37:00.160Z,99500
2022-09-27T03:38:00.179Z,99510
2022-09-27T03:39:00.169Z,99510
2022-09-27T03:40:00.259Z,99510
2022-09-27T03:41:00.258Z,99510
2022-09-27T03:42:00.246Z,99510
2022-09-27T03:43:00.164Z,99510
2022-09-27T03:44:00.333Z,99520
2022-09-27T03:45:00.240Z,99520
2022-09-27T03:46:00.222Z,99520
2022-09-27T03:47:00.169Z,99520
2022-09-27T03:48:00.299Z,99520
2022-09-27T03:49:00.174Z,99520
2022-09-27T03:50:00.203Z,99530
2022-09-27T03:51:00.182Z,99530
2022-09-27T03:52:00.257Z,99540
2022-09-27T03:53:00.157Z,99540
2022-09-27T03:54:00.185Z,99540
2022-09-27T03:55:02.369Z,99540
2022-09-27T03:56:00.264Z,99550
2022-09-27T03:57:00.239Z,99550
2022-09-27T03:58:00.492Z,99560
2022-09-27T03:59:00.175Z,99560
2022-09-27T04:00:00.285Z,99560
2022-09-27T04:01:00.463Z,99560
2022-09-27T04:02:00.406Z,99550
2022-09-27T04:03:00.230Z,99550
2022-09-27T04:04:00.298Z,99550
2022-09-27T04:05:00.168Z,99550
2022-09-27T04:06:00.197Z,99540
2022-09-27T04:07:00.159Z,99540
2022-09-27T04:08:00.255Z,99550
2022-09-27T04:09:00.421Z,99550
2022-09-27T04:10:00.171Z,99550
2022-09-27T04:11:00.154Z,99550
2022-09-27T04:12:00.295Z,99550
2022-09-27T04:13:00.166Z,99550
2022-09-27T04:14:00.161Z,99540
2022-09-27T04:15:00.149Z,99540
2022-09-27T04:16:00.286Z,99530
2022-09-27T04:17:00.331Z,99530
2022-09-27T04:18:00.163Z,99530
2022-09-27T04:19:00.197Z,99530
2022-09-27T04:20:00.355Z,99520
2022-09-27T04:21:00.152Z,99520
2022-09-27T04:22:00.168Z,99510
2022-09-27T04:23:00.186Z,99510
2022-09-27T04:24:00.253Z,99510
2022-09-27T04:25:00.154Z,99510
2022-09-27T04:26:00.159Z,99500
2022-09-27T04:27:00.154Z,99500
2022-09-27T04:28:00.511Z,99490
2022-09-27T04:29:00.150Z,99490
2022-09-27T04:30:00.176Z,99500
2022-09-27T04:31:00.274Z,99500
2022-09-27T04:32:00.292Z,99500
2022-09-27T04:33:00.178Z,99500
2022-09-27T04:34:00.217Z,99500
2022-09-27T04:35:00.155Z,99500
2022-09-27T04:36:00.265Z,99520
2022-09-27T04:37:00.155Z,99520
2022-09-27T04:38:00.154Z,99510
2022-09-27T04:39:01.059Z,99510
2022-09-27T04:40:00.289Z,99510
2022-09-27T04:41:00.251Z,99510
2022-09-27T04:42:00.144Z,99510
2022-09-27T04:43:00.220Z,99510
2022-09-27T04:44:00.298Z,99510
2022-09-27T04:45:00.159Z,99510
2022-09-27T04:46:00.207Z,99510
2022-09-27T04:47:00.223Z,99510
2022-09-27T04:48:00.258Z,99520
2022-09-27T04:49:00.499Z,99520
2022-09-27T04:50:00.181Z,99520
2022-09-27T04:51:00.777Z,99520
2022-09-27T04:52:00.556Z,99520
2022-09-27T04:53:00.170Z,99520
2022-09-27T04:54:00.160Z,99520
2022-09-27T04:55:00.171Z,99520
2022-09-27T04:56:01.139Z,99520
2022-09-27T04:57:00.147Z,99520
2022-09-27T04:58:00.211Z,99520
2022-09-27T04:59:00.160Z,99520
2022-09-27T05:00:00.303Z,99520
2022-09-27T05:01:00.643Z,99520
2022-09-27T05:02:00.156Z,99530
2022-09-27T05:03:00.245Z,99530
2022-09-27T05:04:00.240Z,99540
2022-09-27T05:05:00.222Z,99540
2022-09-27T05:06:00.199Z,99540
2022-09-27T05:07:00.164Z,99540
2022-09-27T05:08:00.273Z,99550
2022-09-27T05:09:00.165Z,99550
2022-09-27T05:10:00.200Z,99560
2022-09-27T05:11:00.154Z,99560
2022-09-27T05:12:00.318Z,99550
2022-09-27T05:13:00.166Z,99550
2022-09-27T05:14:00.151Z,99560
2022-09-27T05:15:00.355Z,99560
2022-09-27T05:16:02.587Z,99560
2022-09-27T05:17:00.288Z,99560
2022-09-27T05:18:00.163Z,99560
2022-09-27T05:19:00.161Z,99560
2022-09-27T05:20:00.240Z,99560
2022-09-27T05:21:00.153Z,99560
2022-09-27T05:22:00.406Z,99560
2022-09-27T05:23:00.183Z,99560
2022-09-27T05:24:00.278Z,99550
2022-09-27T05:25:00.158Z,99550
2022-09-27T05:26:04.022Z,99550
2022-09-27T05:27:00.650Z,99550
2022-09-27T05:28:00.517Z,99550
2022-09-27T05:29:00.172Z,99550
2022-09-27T05:30:00.202Z,99560
2022-09-27T05:31:00.834Z,99560
2022-09-27T05:32:00.865Z,99550
2022-09-27T05:33:00.146Z,99550
2022-09-27T05:34:00.164Z,99550
2022-09-27T05:35:00.327Z,99550
2022-09-27T05:36:00.302Z,99550
2022-09-27T05:37:00.160Z,99550
2022-09-27T05:38:00.227Z,99550
2022-09-27T05:39:00.159Z,99550
2022-09-27T05:40:08.557Z,99540
2022-09-27T05:41:00.281Z,99540
2022-09-27T05:42:00.203Z,99540
2022-09-27T05:43:00.164Z,99540
2022-09-27T05:44:00.261Z,99540
2022-09-27T05:45:00.350Z,99540
2022-09-27T05:46:00.234Z,99540
2022-09-27T05:47:00.545Z,99540
2022-09-27T05:48:00.262Z,99540
2022-09-27T05:49:00.161Z,99540
2022-09-27T05:50:00.163Z,99540
2022-09-27T05:51:00.156Z,99540
2022-09-27T05:52:00.341Z,99540
2022-09-27T05:53:00.199Z,99540
2022-09-27T05:54:00.146Z,99530
2022-09-27T05:55:00.209Z,99530
2022-09-27T05:56:00.888Z,99530
2022-09-27T05:57:00.160Z,99530
2022-09-27T05:58:01.758Z,99530
2022-09-27T05:59:00.154Z,99530
2022-09-27T06:00:00.255Z,99530
2022-09-27T06:01:00.164Z,99530
2022-09-27T06:02:00.267Z,99520
2022-09-27T06:03:01.419Z,99520
2022-09-27T06:04:01.501Z,99520
2022-09-27T06:05:00.161Z,99520
2022-09-27T06:06:02.228Z,99510
2022-09-27T06:07:00.153Z,99510
2022-09-27T06:08:02.023Z,99520
2022-09-27T06:10:00.180Z,99520
2022-09-27T06:11:01.377Z,99520
2022-09-27T06:12:00.257Z,99540
2022-09-27T06:13:01.281Z,99540
2022-09-27T06:14:00.152Z,99540
2022-09-27T06:15:00.188Z,99540
2022-09-27T06:16:00.297Z,99540
2022-09-27T06:17:00.371Z,99540
2022-09-27T06:18:02.643Z,99550
2022-09-27T06:19:00.164Z,99550
2022-09-27T06:20:00.261Z,99550
2022-09-27T06:21:00.640Z,99550
2022-09-27T06:22:00.152Z,99540
2022-09-27T06:23:08.571Z,99540
2022-09-27T06:24:00.268Z,99540
2022-09-27T06:25:00.206Z,99540
2022-09-27T06:26:01.673Z,99550
2022-09-27T06:27:00.163Z,99550
2022-09-27T06:28:00.374Z,99560
2022-09-27T06:29:00.153Z,99560
2022-09-27T06:30:00.171Z,99570
2022-09-27T06:31:00.258Z,99570
2022-09-27T06:32:00.280Z,99570
2022-09-27T06:33:01.141Z,99570
2022-09-27T06:34:00.234Z,99570
2022-09-27T06:35:00.163Z,99570
2022-09-27T06:36:01.054Z,99570
2022-09-27T06:37:00.154Z,99570
2022-09-27T06:38:02.156Z,99570
2022-09-27T06:39:00.152Z,99570
2022-09-27T06:40:00.253Z,99580
2022-09-27T06:41:01.048Z,99580
2022-09-27T06:42:00.161Z,99580
2022-09-27T06:43:02.177Z,99580
2022-09-27T06:44:00.261Z,99580
2022-09-27T06:45:00.165Z,99580
2022-09-27T06:46:00.846Z,99580
2022-09-27T06:47:00.153Z,99580
2022-09-27T06:48:00.758Z,99590
2022-09-27T06:49:00.209Z,99590
2022-09-27T06:50:00.141Z,99590
2022-09-27T06:51:00.145Z,99590
2022-09-27T06:52:00.288Z,99590
2022-09-27T06:53:00.683Z,99590
2022-09-27T06:54:00.153Z,99580
2022-09-27T06:55:00.621Z,99580
2022-09-27T06:56:00.353Z,99590
2022-09-27T06:57:02.498Z,99590
2022-09-27T06:58:00.716Z,99580
2022-09-27T06:59:00.151Z,99580
2022-09-27T07:00:00.287Z,99590
2022-09-27T07:01:00.336Z,99590
2022-09-27T07:02:00.206Z,99580
2022-09-27T07:03:00.150Z,99580
2022-09-27T07:04:00.258Z,99580
2022-09-27T07:05:00.178Z,99580
2022-09-27T07:06:02.496Z,99580
2022-09-27T07:07:00.158Z,99580
2022-09-27T07:08:00.273Z,99580
2022-09-27T07:09:00.191Z,99580
2022-09-27T07:10:00.151Z,99580
2022-09-27T07:11:02.651Z,99580
2022-09-27T07:12:00.255Z,99580
2022-09-27T07:13:04.317Z,99580
2022-09-27T07:14:00.145Z,99590
2022-09-27T07:15:00.169Z,99590
2022-09-27T07:16:00.557Z,99590
2022-09-27T07:17:00.215Z,99590
2022-09-27T07:18:00.175Z,99590
2022-09-27T07:19:00.219Z,99590
2022-09-27T07:20:00.401Z,99590
2022-09-27T07:21:00.610Z,99590
2022-09-27T07:22:00.147Z,99590
2022-09-27T07:23:00.146Z,99590
2022-09-27T07:24:00.239Z,99600
2022-09-27T07:25:00.156Z,99600
2022-09-27T07:26:00.848Z,99590
2022-09-27T07:27:00.154Z,99590
2022-09-27T07:28:02.684Z,99600
2022-09-27T07:29:00.155Z,99600
2022-09-27T07:30:00.353Z,99600
2022-09-27T07:31:00.621Z,99600
2022-09-27T07:32:00.512Z,99600
2022-09-27T07:33:01.338Z,99600
2022-09-27T07:34:00.154Z,99610
2022-09-27T07:35:00.395Z,99610
2022-09-27T07:36:05.132Z,99610
2022-09-27T07:37:00.178Z,99610
2022-09-27T07:38:00.150Z,99610
2022-09-27T07:39:00.169Z,99610
2022-09-27T07:40:00.855Z,99620
2022-09-27T07:41:08.158Z,99620
2022-09-27T07:42:00.172Z,99620
2022-09-27T07:43:00.151Z,99620
2022-09-27T07:44:00.301Z,99620
2022-09-27T07:45:00.155Z,99620
2022-09-27T07:46:00.242Z,99620
2022-09-27T07:47:00.153Z,99620
2022-09-27T07:48:00.234Z,99610
2022-09-27T07:49:00.152Z,99610
2022-09-27T07:50:00.153Z,99620
2022-09-27T07:51:00.150Z,99620
2022-09-27T07:52:00.288Z,99610
2022-09-27T07:53:00.270Z,99610
2022-09-27T07:54:00.185Z,99610
2022-09-27T07:55:00.164Z,99610
2022-09-27T07:56:00.321Z,99620
2022-09-27T07:57:00.151Z,99620
2022-09-27T07:58:03.935Z,99620
2022-09-27T07:59:00.168Z,99620
2022-09-27T08:00:00.278Z,99620
2022-09-27T08:01:00.234Z,99620
2022-09-27T08:02:00.259Z,99620
2022-09-27T08:03:04.119Z,99620
2022-09-27T08:04:00.265Z,99630
2022-09-27T08:05:00.216Z,99630
2022-09-27T08:06:01.644Z,99630
2022-09-27T08:07:00.170Z,99630
2022-09-27T08:08:00.303Z,99630
2022-09-27T08:09:00.163Z,99630
2022-09-27T08:10:00.305Z,99630
2022-09-27T08:11:00.163Z,99630
2022-09-27T08:12:00.272Z,99630
2022-09-27T08:13:00.898Z,99630
2022-09-27T08:14:00.154Z,99630
2022-09-27T08:15:00.181Z,99630
2022-09-27T08:16:00.716Z,99630
2022-09-27T08:17:00.176Z,99630
2022-09-27T08:18:00.214Z,99630
2022-09-27T08:19:00.225Z,99630
2022-09-27T08:20:00.273Z,99630
2022-09-27T08:21:00.185Z,99630
2022-09-27T08:22:00.246Z,99630
2022-09-27T08:23:00.196Z,99630
2022-09-27T08:24:00.304Z,99640
2022-09-27T08:25:00.161Z,99640
2022-09-27T08:26:00.152Z,99640
2022-09-27T08:27:01.143Z,99640
2022-09-27T08:28:01.432Z,99640
2022-09-27T08:29:00.175Z,99640
2022-09-27T08:30:00.164Z,99630
2022-09-27T08:31:00.299Z,99630
2022-09-27T08:32:00.316Z,99630
2022-09-27T08:33:00.841Z,99630
2022-09-27T08:34:00.179Z,99640
2022-09-27T08:35:00.160Z,99640
2022-09-27T08:36:00.305Z,99640
2022-09-27T08:37:00.870Z,99640
2022-09-27T08:38:00.886Z,99640
2022-09-27T08:39:00.572Z,99640
2022-09-27T08:40:00.867Z,99640
2022-09-27T08:41:07.932Z,99640
2022-09-27T08:42:01.151Z,99640
2022-09-27T08:43:05.460Z,99640
2022-09-27T08:44:01.147Z,99640
2022-09-27T08:45:07.057Z,99640
2022-09-27T08:46:01.246Z,99640
2022-09-27T08:47:00.138Z,99640
2022-09-27T08:48:01.631Z,99640
2022-09-27T08:49:05.498Z,99640
2022-09-27T08:50:09.083Z,99650
2022-09-27T08:51:01.974Z,99650
2022-09-27T08:52:00.251Z,99650
2022-09-27T08:53:05.941Z,99650
2022-09-27T08:54:05.004Z,99660
2022-09-27T08:55:01.987Z,99660
2022-09-27T08:56:00.385Z,99660
2022-09-27T08:57:02.835Z,99660
2022-09-27T08:58:00.276Z,99660
2022-09-27T08:59:06.564Z,99660
2022-09-27T09:00:05.321Z,99660
2022-09-27T09:01:02.451Z,99660
2022-09-27T09:02:00.575Z,99660
2022-09-27T09:03:01.297Z,99660
2022-09-27T09:04:00.790Z,99660
2022-09-27T09:05:05.138Z,99660
2022-09-27T09:06:01.148Z,99650
2022-09-27T09:07:07.103Z,99660
2022-09-27T09:08:10.092Z,99660
2022-09-27T09:09:09.681Z,99660
2022-09-27T09:10:10.093Z,99660
2022-09-27T09:11:01.175Z,99660
2022-09-27T09:12:03.400Z,99660
2022-09-27T09:13:04.761Z,99660
2022-09-27T09:14:00.141Z,99660
2022-09-27T09:15:00.150Z,99660
2022-09-27T09:16:06.898Z,99660
2022-09-27T09:17:10.099Z,99660
2022-09-27T09:18:01.150Z,99660
2022-09-27T09:19:03.404Z,99660
2022-09-27T09:20:03.499Z,99660
2022-09-27T09:21:10.096Z,99670
2022-09-27T09:22:10.096Z,99670
2022-09-27T09:23:10.090Z,99670
2022-09-27T09:24:10.090Z,99670
2022-09-27T09:25:03.406Z,99670
2022-09-27T09:26:01.152Z,99670
2022-09-27T09:27:10.085Z,99670
2022-09-27T09:28:02.487Z,99670
2022-09-27T09:29:06.060Z,99670
2022-09-27T09:30:07.495Z,99680
2022-09-27T09:31:09.494Z,99680
2022-09-27T09:32:09.481Z,99680
2022-09-27T09:33:10.094Z,99680
2022-09-27T09:34:10.088Z,99680
2022-09-27T09:35:02.171Z,99680
2022-09-27T09:36:08.126Z,99680
2022-09-27T09:37:03.166Z,99680
2022-09-27T09:38:02.083Z,99670
2022-09-27T09:39:07.084Z,99680
2022-09-27T09:40:08.717Z,99680
2022-09-27T09:41:04.322Z,99680
2022-09-27T09:42:05.375Z,99670
2022-09-27T09:43:07.191Z,99670
2022-09-27T09:44:05.396Z,99670
2022-09-27T09:45:02.950Z,99670
2022-09-27T09:46:05.448Z,99670
2022-09-27T09:47:02.737Z,99670
2022-09-27T09:48:09.659Z,99670
2022-09-27T09:49:03.623Z,99670
2022-09-27T09:50:03.953Z,99670
2022-09-27T09:51:01.280Z,99670
2022-09-27T09:52:08.751Z,99670
2022-09-27T09:53:03.805Z,99670
2022-09-27T09:54:10.089Z,99670
2022-09-27T09:55:00.145Z,99670
2022-09-27T09:56:02.535Z,99670
2022-09-27T09:57:05.068Z,99670
2022-09-27T09:58:03.393Z,99670
2022-09-27T09:59:03.119Z,99670
2022-09-27T10:00:01.427Z,99670
2022-09-27T10:01:10.208Z,99670
2022-09-27T10:02:10.121Z,99670
2022-09-27T10:03:02.058Z,99670
2022-09-27T10:04:00.301Z,99670
2022-09-27T10:05:05.260Z,99670
2022-09-27T10:06:00.205Z,99670
2022-09-27T10:07:00.301Z,99670
2022-09-27T10:08:02.764Z,99670
2022-09-27T10:09:00.244Z,99670
2022-09-27T10:10:01.226Z,99670
2022-09-27T10:11:00.214Z,99670
2022-09-27T10:12:00.252Z,99670
2022-09-27T10:13:01.928Z,99670
2022-09-27T10:14:00.526Z,99660
2022-09-27T10:15:01.742Z,99660
2022-09-27T10:16:00.234Z,99670
2022-09-27T10:17:02.443Z,99670
2022-09-27T10:18:00.167Z,99670
2022-09-27T10:19:01.721Z,99670
2022-09-27T10:20:01.019Z,99670
2022-09-27T10:21:02.135Z,99670
2022-09-27T10:22:02.226Z,99670
2022-09-27T10:23:03.757Z,99670
2022-09-27T10:24:01.673Z,99670
2022-09-27T10:25:01.627Z,99670
2022-09-27T10:26:01.483Z,99670
2022-09-27T10:27:00.192Z,99670
2022-09-27T10:28:00.320Z,99670
2022-09-27T10:29:10.091Z,99670
2022-09-27T10:30:00.196Z,99670
2022-09-27T10:31:01.795Z,99670
2022-09-27T10:32:01.750Z,99670
2022-09-27T10:33:03.759Z,99670
2022-09-27T10:34:02.638Z,99670
2022-09-27T10:35:10.098Z,99670
2022-09-27T10:36:00.649Z,99670
2022-09-27T10:37:01.375Z,99670
2022-09-27T10:38:10.089Z,99680
2022-09-27T10:39:01.689Z,99680
2022-09-27T10:40:00.379Z,99670
2022-09-27T10:41:10.092Z,99670
2022-09-27T10:42:00.158Z,99670
2022-09-27T10:43:00.177Z,99670
2022-09-27T10:44:10.095Z,99670
2022-09-27T10:45:10.095Z,99670
2022-09-27T10:46:10.191Z,99670
2022-09-27T10:47:06.224Z,99670
2022-09-27T10:48:00.578Z,99660
2022-09-27T10:49:10.085Z,99660
2022-09-27T10:50:02.896Z,99660
2022-09-27T10:51:03.197Z,99660
2022-09-27T10:52:03.884Z,99660
2022-09-27T10:53:10.089Z,99670
2022-09-27T10:54:00.196Z,99670
2022-09-27T10:55:05.095Z,99670
2022-09-27T10:56:00.617Z,99670
2022-09-27T10:57:02.977Z,99670
2022-09-27T10:58:00.597Z,99670
2022-09-27T10:59:00.898Z,99670
2022-09-27T11:00:03.333Z,99670
2022-09-27T11:01:01.740Z,99670
2022-09-27T11:02:00.653Z,99670
2022-09-27T11:03:02.066Z,99670
2022-09-27T11:04:00.214Z,99670
2022-09-27T11:05:07.248Z,99670
2022-09-27T11:06:10.097Z,99670
2022-09-27T11:07:07.621Z,99670
2022-09-27T11:08:01.647Z,99670
2022-09-27T11:09:10.100Z,99670
2022-09-27T11:10:00.182Z,99670
2022-09-27T11:11:10.100Z,99670
2022-09-27T11:12:08.352Z,99670
2022-09-27T11:13:10.089Z,99680
2022-09-27T11:14:02.802Z,99680
2022-09-27T11:15:03.880Z,99680
2022-09-27T11:16:10.120Z,99680
2022-09-27T11:17:00.138Z,99680
2022-09-27T11:18:07.191Z,99680
2022-09-27T11:19:06.489Z,99680
2022-09-27T11:20:07.931Z,99680
2022-09-27T11:21:08.482Z,99680
2022-09-27T11:22:10.091Z,99680
2022-09-27T11:23:10.086Z,99680
2022-09-27T11:24:00.141Z,99680
2022-09-27T11:25:00.136Z,99680
2022-09-27T11:26:01.153Z,99680
2022-09-27T11:27:05.991Z,99680
2022-09-27T11:28:10.101Z,99680
2022-09-27T11:29:00.132Z,99680
2022-09-27T11:30:04.800Z,99680
2022-09-27T11:31:01.137Z,99680
2022-09-27T11:32:01.159Z,99680
2022-09-27T11:33:10.088Z,99680
2022-09-27T11:34:10.088Z,99680
2022-09-27T11:35:10.105Z,99680
2022-09-27T11:36:01.144Z,99680
2022-09-27T11:37:05.532Z,99680
2022-09-27T11:38:10.089Z,99680
2022-09-27T11:39:03.892Z,99680
2022-09-27T11:40:05.423Z,99680
2022-09-27T11:41:00.150Z,99680
2022-09-27T11:42:01.139Z,99680
2022-09-27T11:43:10.089Z,99680
2022-09-27T11:44:10.096Z,99680
2022-09-27T11:45:27.773Z,99680
2022-09-27T11:46:17.826Z,99680
2022-09-27T11:47:10.214Z,99680
2022-09-27T11:48:09.207Z,99680
2022-09-27T11:49:10.159Z,99680
2022-09-27T11:50:00.211Z,99680
2022-09-27T11:51:10.097Z,99680
2022-09-27T11:52:10.087Z,99680
2022-09-27T11:53:08.981Z,99680
2022-09-27T11:54:03.393Z,99680
2022-09-27T11:55:01.155Z,99680
2022-09-27T11:56:10.089Z,99670
2022-09-27T11:57:01.149Z,99670
2022-09-27T11:58:07.366Z,99670
2022-09-27T11:59:08.692Z,99670
2022-09-27T12:00:00.179Z,99670
2022-09-27T12:01:10.096Z,99670
2022-09-27T12:02:08.788Z,99670
2022-09-27T12:03:10.198Z,99670
2022-09-27T12:04:10.089Z,99670
2022-09-27T12:05:03.386Z,99670
2022-09-27T12:06:07.529Z,99660
2022-09-27T12:07:10.098Z,99660
2022-09-27T12:08:10.094Z,99660
2022-09-27T12:09:04.307Z,99660
2022-09-27T12:10:02.755Z,99650
2022-09-27T12:11:10.089Z,99660
2022-09-27T12:12:04.414Z,99660
2022-09-27T12:13:00.751Z,99660
2022-09-27T12:14:10.088Z,99660
2022-09-27T12:15:06.720Z,99660
2022-09-27T12:16:00.475Z,99650
2022-09-27T12:17:02.409Z,99650
2022-09-27T12:18:10.088Z,99650
2022-09-27T12:19:00.725Z,99650
2022-09-27T12:20:05.845Z,99660
2022-09-27T12:21:02.005Z,99660
2022-09-27T12:22:01.611Z,99660
2022-09-27T12:23:01.882Z,99660
2022-09-27T12:24:00.906Z,99650
2022-09-27T12:25:00.774Z,99650
2022-09-27T12:26:03.713Z,99650
2022-09-27T12:27:06.057Z,99650
2022-09-27T12:28:06.351Z,99650
2022-09-27T12:29:04.314Z,99650
2022-09-27T12:30:00.566Z,99650
2022-09-27T12:31:28.538Z,99650
2022-09-27T12:32:00.203Z,99650
2022-09-27T12:33:05.100Z,99650
2022-09-27T12:34:06.073Z,99650
2022-09-27T12:35:01.147Z,99650
2022-09-27T12:36:04.623Z,99650
2022-09-27T12:37:01.147Z,99650
2022-09-27T12:38:03.398Z,99650
2022-09-27T12:39:05.640Z,99650
2022-09-27T12:40:01.222Z,99650
2022-09-27T12:41:01.034Z,99650
2022-09-27T12:42:02.354Z,99660
2022-09-27T12:43:05.584Z,99660
2022-09-27T12:44:00.265Z,99650
2022-09-27T12:45:00.229Z,99650
2022-09-27T12:46:10.192Z,99650
2022-09-27T12:47:01.247Z,99650
2022-09-27T12:48:04.906Z,99650
2022-09-27T12:49:04.405Z,99650
2022-09-27T12:50:10.100Z,99650
2022-09-27T12:51:01.154Z,99650
2022-09-27T12:52:02.456Z,99650
2022-09-27T12:53:03.069Z,99650